createdAt,value
2022-08-19T00:04:53.627Z,100.00
2022-08-19T00:14:58.101Z,100.00
2022-08-19T00:25:02.182Z,100.00
2022-08-19T00:35:07.789Z,100.00
2022-08-19T00:45:14.373Z,100.00
2022-08-19T00:55:21.402Z,100.00
2022-08-19T01:05:29.657Z,100.00
2022-08-19T01:15:36.496Z,100.00
2022-08-19T01:25:46.302Z,100.00
2022-08-19T01:35:51.400Z,100.00
2022-08-19T01:45:55.719Z,100.00
2022-08-19T01:55:59.083Z,100.00
2022-08-19T02:06:06.208Z,100.00
2022-08-19T02:16:09.122Z,100.00
2022-08-19T02:26:14.486Z,100.00
2022-08-19T02:36:20.806Z,100.00
2022-08-19T02:46:28.151Z,100.00
2022-08-19T02:56:31.820Z,100.00
2022-08-19T03:06:38.453Z,100.00
2022-08-19T03:16:44.449Z,100.00
2022-08-19T03:26:52.238Z,100.00
2022-08-19T03:36:56.303Z,100.00
2022-08-19T03:47:02.029Z,100.00
2022-08-19T03:57:05.468Z,100.00
2022-08-19T04:07:11.426Z,100.00
2022-08-19T04:17:15.058Z,100.00
2022-08-19T04:27:19.355Z,100.00
2022-08-19T04:37:22.328Z,100.00
2022-08-19T04:47:48.124Z,100.00
2022-08-19T04:57:49.883Z,100.00
2022-08-19T05:07:54.105Z,100.00
2022-08-19T05:18:15.501Z,100.00
2022-08-19T05:28:20.471Z,100.00
2022-08-19T05:38:23.427Z,100.00
2022-08-19T05:48:27.777Z,100.00
2022-08-19T05:58:30.761Z,100.00
2022-08-19T06:08:36.033Z,100.00
2022-08-19T06:18:39.422Z,100.00
2022-08-19T06:28:47.460Z,100.00
2022-08-19T06:38:50.488Z,100.00
2022-08-19T06:48:55.881Z,100.00
2022-08-19T06:58:58.978Z,100.00
2022-08-19T07:09:03.587Z,100.00
2022-08-19T07:19:11.857Z,100.00
2022-08-19T07:29:25.814Z,100.00
2022-08-19T07:39:34.158Z,98.12
2022-08-19T07:49:39.566Z,97.11
2022-08-19T07:59:42.615Z,94.51
2022-08-19T08:09:49.648Z,93.39
2022-08-19T08:19:53.393Z,94.25
2022-08-19T08:29:57.765Z,94.90
2022-08-19T08:40:01.142Z,91.13
2022-08-19T08:50:11.516Z,89.24
2022-08-19T09:00:27.517Z,90.57
2022-08-19T09:10:44.729Z,89.38
2022-08-19T09:20:49.015Z,86.04
2022-08-19T09:30:53.667Z,86.61
2022-08-19T09:40:57.187Z,86.35
2022-08-19T09:51:09.043Z,85.58
2022-08-19T10:01:20.191Z,86.31
2022-08-19T10:11:27.200Z,85.38
2022-08-19T10:21:35.266Z,83.58
2022-08-19T10:32:00.877Z,80.80
2022-08-19T10:42:07.438Z,78.48
2022-08-19T10:52:32.421Z,78.18
2022-08-19T11:02:35.703Z,76.31
2022-08-19T11:12:47.555Z,75.68
2022-08-19T11:22:51.075Z,73.49
2022-08-19T11:32:58.731Z,71.51
2022-08-19T11:43:02.730Z,69.58
2022-08-19T11:53:16.718Z,69.00
2022-08-19T12:03:20.681Z,67.94
2022-08-19T12:13:25.811Z,69.39
2022-08-19T12:23:28.837Z,72.21
2022-08-19T12:33:33.812Z,72.74
2022-08-19T12:43:38.029Z,70.00
2022-08-19T12:53:43.124Z,69.89
2022-08-19T13:03:48.350Z,71.40
2022-08-19T13:13:57.070Z,72.06
2022-08-19T13:24:00.303Z,72.52
2022-08-19T13:34:05.557Z,71.90
2022-08-19T13:44:09.646Z,72.30
2022-08-19T13:54:14.470Z,73.50
2022-08-19T14:04:17.406Z,74.98
2022-08-19T14:14:22.439Z,72.25
2022-08-19T14:24:25.500Z,66.95
2022-08-19T14:34:29.851Z,65.32
2022-08-19T14:44:34.804Z,64.45
2022-08-19T14:54:39.997Z,65.74
2022-08-19T15:04:58.389Z,67.07
2022-08-19T15:15:03.421Z,67.37
2022-08-19T15:25:10.047Z,66.64
2022-08-19T15:35:16.392Z,67.58
2022-08-19T15:45:23.553Z,68.53
2022-08-19T15:55:34.826Z,73.99
2022-08-19T16:05:56.118Z,79.59
2022-08-19T16:16:00.467Z,84.04
2022-08-19T16:26:03.708Z,86.96
2022-08-19T16:36:08.903Z,88.04
2022-08-19T16:46:13.160Z,89.50
2022-08-19T16:56:25.554Z,90.54
2022-08-19T17:06:35.082Z,100.00
2022-08-19T17:16:39.840Z,100.00
2022-08-19T17:26:46.051Z,100.00
2022-08-19T17:36:51.881Z,100.00
2022-08-19T17:47:04.977Z,100.00
2022-08-19T17:57:14.102Z,100.00
2022-08-19T18:07:22.068Z,100.00
2022-08-19T18:17:30.324Z,100.00
2022-08-19T18:27:36.367Z,100.00
2022-08-19T18:37:41.874Z,100.00
2022-08-19T18:48:02.153Z,100.00
2022-08-19T18:58:06.948Z,100.00
2022-08-19T19:08:09.929Z,100.00
2022-08-19T19:18:14.419Z,100.00
2022-08-19T19:28:17.433Z,100.00
2022-08-19T19:38:21.830Z,100.00
2022-08-19T19:48:25.037Z,100.00
2022-08-19T19:58:34.866Z,100.00
2022-08-19T20:08:55.774Z,100.00
2022-08-19T20:19:02.077Z,100.00
2022-08-19T20:29:13.245Z,100.00
2022-08-19T20:39:29.637Z,100.00
2022-08-19T20:49:33.079Z,100.00
2022-08-19T20:59:37.732Z,100.00
2022-08-19T21:09:40.718Z,100.00
2022-08-19T21:19:45.146Z,100.00
2022-08-19T21:29:48.553Z,100.00
2022-08-19T21:39:53.014Z,100.00
2022-08-19T21:49:55.962Z,100.00
2022-08-19T22:00:00.676Z,100.00
2022-08-19T22:10:05.011Z,100.00
2022-08-19T22:20:12.261Z,100.00
2022-08-19T22:30:17.599Z,100.00
2022-08-19T22:40:22.504Z,100.00
2022-08-19T22:50:25.666Z,100.00
2022-08-19T23:00:30.841Z,100.00
2022-08-19T23:10:33.797Z,100.00
2022-08-19T23:20:40.547Z,100.00
2022-08-19T23:30:45.706Z,100.00
2022-08-19T23:40:51.103Z,100.00
2022-08-19T23:50:54.905Z,100.00
